createdAt,value
2023-04-18T00:00:06.424Z,98229.73
2023-04-18T00:03:00.211Z,98228.41
2023-04-18T00:05:29.045Z,98230.34
2023-04-18T00:07:56.092Z,98230.29
2023-04-18T00:10:23.179Z,98226.63
2023-04-18T00:12:50.928Z,98224.73
2023-04-18T00:15:18.086Z,98219.67
2023-04-18T00:17:45.157Z,98220.55
2023-04-18T00:20:12.480Z,98219.09
2023-04-18T00:22:41.867Z,98215.84
2023-04-18T00:25:09.919Z,98222.88
2023-04-18T00:27:37.669Z,98232.35
2023-04-18T00:30:08.065Z,98229.17
2023-04-18T00:32:37.708Z,98228.73
2023-04-18T00:35:04.898Z,98231.41
2023-04-18T00:37:31.823Z,98232.41
2023-04-18T00:39:58.622Z,98230.71
2023-04-18T00:42:27.379Z,98232.33
2023-04-18T00:44:54.302Z,98235.30
2023-04-18T00:47:21.336Z,98236.17
2023-04-18T00:49:49.091Z,98240.19
2023-04-18T00:52:18.085Z,98238.74
2023-04-18T00:54:44.913Z,98237.90
2023-04-18T00:57:12.002Z,98236.42
2023-04-18T00:59:38.862Z,98234.71
2023-04-18T01:02:07.927Z,98236.98
2023-04-18T01:04:35.292Z,98238.38
2023-04-18T01:07:02.974Z,98237.50
2023-04-18T01:09:30.434Z,98237.96
2023-04-18T01:11:57.381Z,98235.35
2023-04-18T01:14:24.429Z,98237.47
2023-04-18T01:16:51.478Z,98243.53
2023-04-18T01:19:19.208Z,98248.91
2023-04-18T01:21:46.924Z,98251.71
2023-04-18T01:24:15.186Z,98250.40
2023-04-18T01:26:43.575Z,98254.15
2023-04-18T01:29:10.854Z,98255.95
2023-04-18T01:31:38.345Z,98259.64
2023-04-18T01:34:05.893Z,98261.14
2023-04-18T01:36:33.367Z,98261.23
2023-04-18T01:39:00.691Z,98261.02
2023-04-18T01:41:31.864Z,98267.06
2023-04-18T01:43:58.998Z,98266.05
2023-04-18T01:46:26.537Z,98269.20
2023-04-18T01:48:54.879Z,98265.90
2023-04-18T01:51:22.101Z,98267.27
2023-04-18T01:53:49.264Z,98270.25
2023-04-18T01:56:16.412Z,98277.69
2023-04-18T01:58:43.466Z,98277.32
2023-04-18T02:01:10.614Z,98280.70
2023-04-18T02:03:38.988Z,98281.58
2023-04-18T02:06:06.580Z,98279.09
2023-04-18T02:08:35.256Z,98277.06
2023-04-18T02:11:04.780Z,98275.54
2023-04-18T02:13:32.142Z,98277.73
2023-04-18T02:15:59.276Z,98278.23
2023-04-18T02:18:26.557Z,98276.96
2023-04-18T02:20:53.617Z,98277.16
2023-04-18T02:23:21.820Z,98281.05
2023-04-18T02:25:48.879Z,98278.89
2023-04-18T02:28:17.543Z,98283.64
2023-04-18T02:30:44.989Z,98285.88
2023-04-18T02:33:12.508Z,98286.14
2023-04-18T02:35:40.214Z,98285.94
2023-04-18T02:38:07.243Z,98285.73
2023-04-18T02:40:34.156Z,98290.74
2023-04-18T02:43:02.087Z,98293.04
2023-04-18T02:45:29.038Z,98290.77
2023-04-18T02:47:57.834Z,98291.27
2023-04-18T02:50:24.938Z,98290.98
2023-04-18T02:52:52.774Z,98287.55
2023-04-18T02:55:21.476Z,98289.85
2023-04-18T02:57:48.602Z,98289.92
2023-04-18T03:00:38.785Z,98288.52
2023-04-18T03:03:24.668Z,98287.85
2023-04-18T03:06:07.272Z,98284.65
2023-04-18T03:08:34.525Z,98284.39
2023-04-18T03:11:01.522Z,98286.27
2023-04-18T03:13:29.166Z,98288.84
2023-04-18T03:15:56.175Z,98289.83
2023-04-18T03:18:23.205Z,98289.74
2023-04-18T03:20:50.922Z,98296.36
2023-04-18T03:23:17.976Z,98297.51
2023-04-18T03:25:45.737Z,98301.04
2023-04-18T03:28:12.793Z,98308.12
2023-04-18T03:30:39.950Z,98313.37
2023-04-18T03:33:07.411Z,98316.00
2023-04-18T03:35:34.977Z,98320.38
2023-04-18T03:38:02.228Z,98316.20
2023-04-18T03:40:31.059Z,98322.75
2023-04-18T03:43:02.494Z,98323.20
2023-04-18T03:45:29.737Z,98327.40
2023-04-18T03:47:56.741Z,98327.91
2023-04-18T03:50:25.286Z,98331.13
2023-04-18T03:52:53.152Z,98332.64
2023-04-18T03:55:20.313Z,98333.67
2023-04-18T03:57:47.668Z,98339.73
2023-04-18T04:00:20.350Z,98339.14
2023-04-18T04:02:58.462Z,98342.27
2023-04-18T04:05:25.508Z,98339.25
2023-04-18T04:07:52.537Z,98342.50
2023-04-18T04:10:20.024Z,98338.40
2023-04-18T04:12:47.797Z,98341.55
2023-04-18T04:15:14.784Z,98347.15
2023-04-18T04:17:46.950Z,98350.90
2023-04-18T04:20:14.488Z,98350.33
2023-04-18T04:22:42.355Z,98356.89
2023-04-18T04:25:10.025Z,98361.23
2023-04-18T04:27:39.067Z,98361.51
2023-04-18T04:30:08.328Z,98366.34
2023-04-18T04:32:36.012Z,98370.76
2023-04-18T04:35:04.066Z,98368.94
2023-04-18T04:37:33.064Z,98373.16
2023-04-18T04:40:08.812Z,98376.38
2023-04-18T04:43:12.017Z,98379.11
2023-04-18T04:45:44.080Z,98376.45
2023-04-18T04:48:11.218Z,98380.66
2023-04-18T04:50:40.613Z,98377.67
2023-04-18T04:53:08.189Z,98381.08
2023-04-18T04:55:35.555Z,98377.56
2023-04-18T04:58:02.815Z,98380.98
2023-04-18T05:00:38.246Z,98378.92
2023-04-18T05:03:06.637Z,98380.98
2023-04-18T05:05:33.890Z,98384.70
2023-04-18T05:08:00.998Z,98378.91
2023-04-18T05:10:27.846Z,98381.58
2023-04-18T05:12:54.949Z,98382.08
2023-04-18T05:15:22.785Z,98381.42
2023-04-18T05:17:49.732Z,98381.70
2023-04-18T05:20:16.795Z,98380.73
2023-04-18T05:22:43.719Z,98379.19
2023-04-18T05:25:11.799Z,98382.11
2023-04-18T05:27:38.762Z,98379.74
2023-04-18T05:30:06.304Z,98380.66
2023-04-18T05:32:33.259Z,98378.96
2023-04-18T05:35:00.145Z,98377.61
2023-04-18T05:37:27.108Z,98377.60
2023-04-18T05:39:53.957Z,98372.09
2023-04-18T05:42:20.760Z,98372.05
2023-04-18T05:44:47.709Z,98372.64
2023-04-18T05:47:14.561Z,98373.27
2023-04-18T05:49:41.416Z,98371.81
2023-04-18T05:52:08.399Z,98367.93
2023-04-18T05:54:35.298Z,98366.22
2023-04-18T05:57:04.243Z,98370.58
2023-04-18T05:59:31.546Z,98370.96
2023-04-18T06:01:58.392Z,98371.19
2023-04-18T06:04:25.443Z,98370.81
2023-04-18T06:06:52.462Z,98373.11
2023-04-18T06:09:19.506Z,98371.98
2023-04-18T06:11:46.401Z,98370.15
2023-04-18T06:14:13.628Z,98373.64
2023-04-18T06:16:40.967Z,98367.30
2023-04-18T06:19:07.933Z,98361.34
2023-04-18T06:21:34.888Z,98359.19
2023-04-18T06:24:01.944Z,98355.23
2023-04-18T06:26:31.557Z,98348.64
2023-04-18T06:28:58.507Z,98343.58
2023-04-18T06:31:25.628Z,98343.61
2023-04-18T06:33:52.825Z,98343.15
2023-04-18T06:36:19.894Z,98340.15
2023-04-18T06:38:46.820Z,98340.39
2023-04-18T06:41:14.395Z,98338.08
2023-04-18T06:43:49.134Z,98332.21
2023-04-18T06:46:26.752Z,98335.16
2023-04-18T06:48:53.968Z,98336.82
2023-04-18T06:51:20.921Z,98334.61
2023-04-18T06:53:48.070Z,98334.08
2023-04-18T06:56:15.331Z,98333.99
2023-04-18T06:58:42.282Z,98331.61
2023-04-18T07:01:09.382Z,98332.19
2023-04-18T07:03:36.475Z,98335.05
2023-04-18T07:06:04.667Z,98333.11
2023-04-18T07:08:32.845Z,98333.34
2023-04-18T07:10:59.797Z,98336.36
2023-04-18T07:13:26.853Z,98333.63
2023-04-18T07:15:54.111Z,98331.27
2023-04-18T07:18:34.192Z,98326.38
2023-04-18T07:21:08.372Z,98325.27
2023-04-18T07:23:35.539Z,98324.32
2023-04-18T07:26:02.993Z,98327.79
2023-04-18T07:28:30.521Z,98326.44
2023-04-18T07:30:58.084Z,98322.61
2023-04-18T07:33:25.115Z,98323.69
2023-04-18T07:35:52.569Z,98322.14
2023-04-18T07:38:19.668Z,98325.59
2023-04-18T07:40:46.638Z,98325.75
2023-04-18T07:43:13.634Z,98324.34
2023-04-18T07:45:42.648Z,98322.30
2023-04-18T07:48:10.655Z,98317.48
2023-04-18T07:50:37.507Z,98319.41
2023-04-18T07:53:04.661Z,98320.29
2023-04-18T07:55:31.608Z,98319.62
2023-04-18T07:57:58.439Z,98320.54
2023-04-18T08:00:25.881Z,98320.42
2023-04-18T08:02:52.924Z,98322.13
2023-04-18T08:05:20.360Z,98326.16
2023-04-18T08:07:47.209Z,98324.55
2023-04-18T08:10:14.161Z,98319.55
2023-04-18T08:12:41.675Z,98319.66
2023-04-18T08:15:08.656Z,98316.25
2023-04-18T08:17:36.042Z,98313.83
2023-04-18T08:20:06.726Z,98309.55
2023-04-18T08:22:33.637Z,98310.38
2023-04-18T08:25:04.832Z,98310.75
2023-04-18T08:27:32.716Z,98310.93
2023-04-18T08:30:00.045Z,98309.73
2023-04-18T08:32:26.931Z,98312.31
2023-04-18T08:34:53.898Z,98310.06
2023-04-18T08:37:20.748Z,98307.30
2023-04-18T08:39:47.795Z,98310.59
2023-04-18T08:42:33.776Z,98316.09
2023-04-18T08:45:00.947Z,98311.08
2023-04-18T08:47:31.230Z,98310.88
2023-04-18T08:49:58.191Z,98311.06
2023-04-18T08:52:49.047Z,98311.19
2023-04-18T08:55:16.348Z,98301.40
2023-04-18T08:58:01.638Z,98302.77
2023-04-18T09:00:51.657Z,98302.98
2023-04-18T09:03:39.230Z,98295.35
2023-04-18T09:06:13.436Z,98294.03
2023-04-18T09:08:58.773Z,98293.94
2023-04-18T09:11:28.234Z,98294.22
2023-04-18T09:13:55.972Z,98293.88
2023-04-18T09:16:23.115Z,98291.11
2023-04-18T09:19:13.594Z,98294.36
2023-04-18T09:21:42.131Z,98296.88
2023-04-18T09:24:20.336Z,98288.16
2023-04-18T09:26:49.427Z,98287.86
2023-04-18T09:29:17.946Z,98286.63
2023-04-18T09:31:55.551Z,98280.96
2023-04-18T09:34:25.924Z,98284.59
2023-04-18T09:37:07.292Z,98283.13
2023-04-18T09:39:34.394Z,98276.91
2023-04-18T09:42:02.040Z,98274.76
2023-04-18T09:44:29.059Z,98273.89
2023-04-18T09:46:56.061Z,98276.29
2023-04-18T09:49:23.310Z,98274.39
2023-04-18T09:51:51.748Z,98269.09
2023-04-18T09:54:20.281Z,98267.10
2023-04-18T09:56:50.027Z,98265.59
2023-04-18T09:59:35.874Z,98264.40
2023-04-18T10:02:07.510Z,98262.70
2023-04-18T10:04:35.269Z,98258.73
2023-04-18T10:07:02.940Z,98258.45
2023-04-18T10:09:32.720Z,98258.80
2023-04-18T10:12:02.105Z,98260.04
2023-04-18T10:14:31.001Z,98256.29
2023-04-18T10:16:58.959Z,98253.30
2023-04-18T10:19:27.273Z,98249.83
2023-04-18T10:21:55.526Z,98246.05
2023-04-18T10:24:41.116Z,98243.17
2023-04-18T10:27:08.454Z,98235.48
2023-04-18T10:29:49.633Z,98239.48
2023-04-18T10:32:18.219Z,98242.98
2023-04-18T10:34:48.868Z,98236.23
2023-04-18T10:37:17.254Z,98236.70
2023-04-18T10:39:53.296Z,98243.64
2023-04-18T10:42:40.203Z,98238.55
2023-04-18T10:45:23.432Z,98233.49
2023-04-18T10:47:50.547Z,98231.35
2023-04-18T10:50:17.749Z,98232.40
2023-04-18T10:52:44.995Z,98231.91
2023-04-18T10:55:16.779Z,98226.81
2023-04-18T10:57:45.351Z,98237.36
2023-04-18T11:00:14.263Z,98240.19
2023-04-18T11:02:47.949Z,98242.34
2023-04-18T11:05:18.898Z,98247.02
2023-04-18T11:07:47.951Z,98247.52
2023-04-18T11:10:19.674Z,98247.98
2023-04-18T11:12:47.112Z,98246.17
2023-04-18T11:15:17.236Z,98243.23
2023-04-18T11:17:44.472Z,98245.09
2023-04-18T11:20:14.217Z,98239.92
2023-04-18T11:22:48.727Z,98241.38
2023-04-18T11:25:16.461Z,98234.39
2023-04-18T11:27:44.576Z,98227.84
2023-04-18T11:30:12.347Z,98228.38
2023-04-18T11:32:39.396Z,98226.14
2023-04-18T11:35:13.207Z,98225.02
2023-04-18T11:37:41.072Z,98222.92
2023-04-18T11:40:11.809Z,98220.67
2023-04-18T11:42:39.292Z,98218.84
2023-04-18T11:45:13.764Z,98221.45
2023-04-18T11:47:42.226Z,98227.95
2023-04-18T11:50:10.856Z,98225.48
2023-04-18T11:52:38.871Z,98224.86
2023-04-18T11:55:20.746Z,98222.05
2023-04-18T11:57:53.582Z,98220.64
2023-04-18T12:00:30.484Z,98217.65
2023-04-18T12:02:58.696Z,98216.98
2023-04-18T12:05:27.149Z,98216.59
2023-04-18T12:07:55.118Z,98216.56
2023-04-18T12:10:21.979Z,98212.01
2023-04-18T12:12:49.802Z,98211.35
2023-04-18T12:15:17.244Z,98212.77
2023-04-18T12:17:44.762Z,98211.49
2023-04-18T12:20:12.802Z,98208.36
2023-04-18T12:22:49.654Z,98203.92
2023-04-18T12:25:22.822Z,98209.41
2023-04-18T12:27:57.303Z,98205.32
2023-04-18T12:30:36.799Z,98207.14
2023-04-18T12:33:04.655Z,98204.40
2023-04-18T12:35:31.757Z,98201.31
2023-04-18T12:37:59.779Z,98204.65
2023-04-18T12:40:27.200Z,98206.85
2023-04-18T12:42:54.861Z,98204.08
2023-04-18T12:45:22.410Z,98202.84
2023-04-18T12:47:50.298Z,98196.66
2023-04-18T12:50:18.249Z,98199.19
2023-04-18T12:52:45.247Z,98194.30
2023-04-18T12:55:12.530Z,98186.58
2023-04-18T12:57:40.770Z,98188.49
2023-04-18T13:00:12.435Z,98185.63
2023-04-18T13:02:40.611Z,98186.20
2023-04-18T13:05:08.430Z,98185.66
2023-04-18T13:07:37.260Z,98179.84
2023-04-18T13:10:04.409Z,98181.55
2023-04-18T13:12:31.234Z,98181.59
2023-04-18T13:14:58.151Z,98185.23
2023-04-18T13:17:25.489Z,98180.76
2023-04-18T13:19:52.465Z,98182.43
2023-04-18T13:22:19.978Z,98184.30
2023-04-18T13:24:47.346Z,98178.62
2023-04-18T13:27:14.350Z,98182.37
2023-04-18T13:29:42.112Z,98177.48
2023-04-18T13:32:09.268Z,98181.61
2023-04-18T13:34:39.155Z,98179.05
2023-04-18T13:37:06.133Z,98184.96
2023-04-18T13:39:33.362Z,98180.50
2023-04-18T13:42:02.731Z,98185.50
2023-04-18T13:44:30.352Z,98184.23
2023-04-18T13:46:57.437Z,98184.48
2023-04-18T13:49:24.272Z,98186.73
2023-04-18T13:51:52.972Z,98185.14
2023-04-18T13:54:20.125Z,98181.31
2023-04-18T13:56:46.988Z,98181.16
2023-04-18T13:59:14.149Z,98183.23
2023-04-18T14:01:41.919Z,98179.63
2023-04-18T14:04:09.061Z,98185.57
2023-04-18T14:06:36.066Z,98190.08
2023-04-18T14:09:03.305Z,98185.46
2023-04-18T14:11:30.170Z,98186.84
2023-04-18T14:13:57.109Z,98190.19
2023-04-18T14:16:24.035Z,98186.98
2023-04-18T14:18:51.060Z,98183.07
2023-04-18T14:21:17.939Z,98180.98
2023-04-18T14:23:44.720Z,98180.77
2023-04-18T14:26:11.594Z,98183.98
2023-04-18T14:28:38.526Z,98185.16
2023-04-18T14:31:06.087Z,98182.83
2023-04-18T14:33:35.669Z,98182.55
2023-04-18T14:36:02.716Z,98183.34
2023-04-18T14:38:29.661Z,98182.24
2023-04-18T14:40:56.994Z,98184.99
2023-04-18T14:43:24.210Z,98185.62
2023-04-18T14:45:51.453Z,98183.05
2023-04-18T14:48:18.458Z,98183.34
2023-04-18T14:50:45.266Z,98180.08
2023-04-18T14:53:12.185Z,98179.25
2023-04-18T14:55:39.049Z,98183.39
2023-04-18T14:58:05.917Z,98185.88
2023-04-18T15:00:32.886Z,98182.80
2023-04-18T15:03:00.291Z,98188.45
2023-04-18T15:05:27.406Z,98187.84
2023-04-18T15:07:55.549Z,98189.17
2023-04-18T15:10:22.474Z,98189.35
2023-04-18T15:12:50.597Z,98190.83
2023-04-18T15:15:18.368Z,98190.64
2023-04-18T15:17:45.288Z,98193.09
2023-04-18T15:20:12.536Z,98193.46
2023-04-18T15:22:39.419Z,98197.34
2023-04-18T15:25:06.850Z,98196.69
2023-04-18T15:27:33.707Z,98195.77
2023-04-18T15:30:01.841Z,98198.58
2023-04-18T15:32:28.719Z,98196.37
2023-04-18T15:34:55.927Z,98198.89
2023-04-18T15:37:23.184Z,98200.29
2023-04-18T15:39:50.062Z,98206.95
2023-04-18T15:42:16.965Z,98200.96
2023-04-18T15:44:43.915Z,98198.66
2023-04-18T15:47:10.754Z,98200.01
2023-04-18T15:49:37.570Z,98200.27
2023-04-18T15:52:05.888Z,98202.47
2023-04-18T15:54:32.793Z,98198.94
2023-04-18T15:56:59.719Z,98201.50
2023-04-18T15:59:26.523Z,98201.77
2023-04-18T16:01:53.477Z,98202.83
2023-04-18T16:04:20.678Z,98201.73
2023-04-18T16:06:47.537Z,98205.05
2023-04-18T16:09:15.656Z,98208.92
2023-04-18T16:11:42.673Z,98212.38
2023-04-18T16:14:09.509Z,98208.79
2023-04-18T16:16:36.533Z,98209.90
2023-04-18T16:19:04.881Z,98210.16
2023-04-18T16:21:32.092Z,98213.36
2023-04-18T16:23:59.312Z,98215.52
2023-04-18T16:26:26.195Z,98216.42
2023-04-18T16:28:53.095Z,98225.64
2023-04-18T16:31:20.167Z,98227.48
2023-04-18T16:33:47.145Z,98231.73
2023-04-18T16:36:14.087Z,98234.02
2023-04-18T16:38:40.946Z,98236.38
2023-04-18T16:41:07.896Z,98235.81
2023-04-18T16:43:37.524Z,98238.26
2023-04-18T16:46:04.576Z,98237.27
2023-04-18T16:48:31.577Z,98239.29
2023-04-18T16:50:58.599Z,98242.21
2023-04-18T16:53:25.549Z,98240.20
2023-04-18T16:55:55.281Z,98242.55
2023-04-18T16:58:22.987Z,98244.06
2023-04-18T17:00:49.960Z,98246.42
2023-04-18T17:03:16.993Z,98246.86
2023-04-18T17:05:44.074Z,98249.63
2023-04-18T17:08:10.922Z,98256.89
2023-04-18T17:10:37.737Z,98256.00
2023-04-18T17:13:04.554Z,98260.42
2023-04-18T17:15:31.576Z,98260.95
2023-04-18T17:18:00.627Z,98263.79
2023-04-18T17:20:27.853Z,98266.77
2023-04-18T17:22:54.883Z,98266.95
2023-04-18T17:25:21.882Z,98268.70
2023-04-18T17:27:48.776Z,98265.40
2023-04-18T17:30:15.748Z,98263.05
2023-04-18T17:32:45.409Z,98265.27
2023-04-18T17:35:16.606Z,98265.32
2023-04-18T17:37:43.547Z,98267.60
2023-04-18T17:40:11.388Z,98270.95
2023-04-18T17:42:38.413Z,98275.40
2023-04-18T17:45:07.040Z,98274.91
2023-04-18T17:47:35.833Z,98276.56
2023-04-18T17:50:06.307Z,98276.20
2023-04-18T17:52:33.250Z,98272.36
2023-04-18T17:55:03.610Z,98275.66
2023-04-18T17:57:32.447Z,98273.84
2023-04-18T17:59:59.369Z,98274.02
2023-04-18T18:02:27.815Z,98275.62
2023-04-18T18:04:55.820Z,98278.50
2023-04-18T18:07:22.577Z,98276.58
2023-04-18T18:09:49.502Z,98278.63
2023-04-18T18:12:16.782Z,98277.80
2023-04-18T18:14:43.586Z,98281.55
2023-04-18T18:17:10.840Z,98278.33
2023-04-18T18:19:38.144Z,98282.56
2023-04-18T18:22:05.651Z,98287.15
2023-04-18T18:24:32.566Z,98290.27
2023-04-18T18:26:59.538Z,98289.63
2023-04-18T18:29:26.527Z,98288.36
2023-04-18T18:31:53.344Z,98286.77
2023-04-18T18:34:21.194Z,98289.80
2023-04-18T18:36:48.148Z,98289.13
2023-04-18T18:39:15.923Z,98291.35
2023-04-18T18:41:43.037Z,98286.86
2023-04-18T18:44:11.007Z,98289.14
2023-04-18T18:46:37.976Z,98288.17
2023-04-18T18:49:04.911Z,98291.98
2023-04-18T18:51:32.335Z,98291.67
2023-04-18T18:53:59.239Z,98292.99
2023-04-18T18:56:26.079Z,98291.73
2023-04-18T18:58:53.878Z,98291.45
2023-04-18T19:01:20.791Z,98295.55
2023-04-18T19:03:47.802Z,98292.59
2023-04-18T19:06:15.224Z,98293.08
2023-04-18T19:08:42.180Z,98291.35
2023-04-18T19:11:09.766Z,98286.95
2023-04-18T19:13:36.679Z,98283.81
2023-04-18T19:16:03.605Z,98279.46
2023-04-18T19:18:30.560Z,98279.45
2023-04-18T19:20:57.503Z,98280.25
2023-04-18T19:23:24.755Z,98278.42
2023-04-18T19:25:51.679Z,98275.27
2023-04-18T19:28:18.565Z,98276.00
2023-04-18T19:30:45.924Z,98276.65
2023-04-18T19:33:13.109Z,98278.31
2023-04-18T19:35:40.094Z,98277.27
2023-04-18T19:38:07.077Z,98275.60
2023-04-18T19:40:33.967Z,98277.42
2023-04-18T19:43:00.797Z,98278.84
2023-04-18T19:45:27.658Z,98276.10
2023-04-18T19:47:54.514Z,98280.96
2023-04-18T19:50:21.497Z,98282.63
2023-04-18T19:52:48.386Z,98284.70
2023-04-18T19:55:15.859Z,98279.81
2023-04-18T19:57:43.436Z,98280.36
2023-04-18T20:00:12.130Z,98279.73
2023-04-18T20:02:44.719Z,98282.91
2023-04-18T20:05:12.430Z,98280.73
2023-04-18T20:07:40.863Z,98277.15
2023-04-18T20:10:08.539Z,98281.16
2023-04-18T20:12:35.412Z,98279.63
2023-04-18T20:15:02.423Z,98283.02
2023-04-18T20:17:33.995Z,98283.88
2023-04-18T20:20:00.911Z,98281.48
2023-04-18T20:22:27.902Z,98285.76
2023-04-18T20:24:56.581Z,98281.77
2023-04-18T20:27:23.584Z,98282.27
2023-04-18T20:29:50.468Z,98280.92
2023-04-18T20:32:17.525Z,98279.92
2023-04-18T20:34:46.056Z,98281.36
2023-04-18T20:37:15.428Z,98277.45
2023-04-18T20:39:42.457Z,98279.96
2023-04-18T20:42:13.671Z,98278.23
2023-04-18T20:44:46.162Z,98277.36
2023-04-18T20:47:15.261Z,98276.48
2023-04-18T20:49:42.873Z,98278.30
2023-04-18T20:52:09.861Z,98276.79
2023-04-18T20:54:36.886Z,98271.45
2023-04-18T20:57:03.834Z,98274.88
2023-04-18T20:59:30.825Z,98275.82
2023-04-18T21:01:57.904Z,98274.55
2023-04-18T21:04:25.386Z,98275.50
2023-04-18T21:06:52.396Z,98272.33
2023-04-18T21:09:19.324Z,98272.54
2023-04-18T21:11:46.296Z,98268.58
2023-04-18T21:14:13.321Z,98264.02
2023-04-18T21:16:40.534Z,98261.48
2023-04-18T21:19:08.049Z,98262.81
2023-04-18T21:21:35.027Z,98259.39
2023-04-18T21:24:02.152Z,98253.05
2023-04-18T21:26:29.121Z,98251.96
2023-04-18T21:29:00.151Z,98251.52
2023-04-18T21:31:28.914Z,98250.98
2023-04-18T21:33:56.489Z,98249.69
2023-04-18T21:36:24.430Z,98252.25
2023-04-18T21:38:51.954Z,98247.23
2023-04-18T21:41:19.244Z,98246.45
2023-04-18T21:43:46.497Z,98246.70
2023-04-18T21:46:14.296Z,98250.01
2023-04-18T21:48:41.944Z,98247.83
2023-04-18T21:51:09.534Z,98248.77
2023-04-18T21:53:37.353Z,98249.06
2023-04-18T21:56:04.795Z,98245.52
2023-04-18T21:58:31.949Z,98247.42
2023-04-18T22:00:58.981Z,98242.23
2023-04-18T22:03:26.943Z,98246.00
2023-04-18T22:05:57.300Z,98245.95
2023-04-18T22:08:27.740Z,98244.84
2023-04-18T22:10:55.521Z,98244.44
2023-04-18T22:13:22.957Z,98237.96
2023-04-18T22:15:50.915Z,98245.27
2023-04-18T22:18:18.431Z,98243.02
2023-04-18T22:20:46.313Z,98246.40
2023-04-18T22:23:13.522Z,98247.64
2023-04-18T22:25:40.473Z,98244.27
2023-04-18T22:28:07.297Z,98247.44
2023-04-18T22:30:34.232Z,98246.77
2023-04-18T22:33:01.366Z,98246.86
2023-04-18T22:35:28.527Z,98240.84
2023-04-18T22:37:55.386Z,98241.57
2023-04-18T22:40:22.316Z,98238.13
2023-04-18T22:42:51.309Z,98238.77
2023-04-18T22:45:18.847Z,98234.75
2023-04-18T22:47:46.278Z,98235.27
2023-04-18T22:50:13.555Z,98233.58
2023-04-18T22:52:40.745Z,98234.84
2023-04-18T22:55:08.258Z,98233.67
2023-04-18T22:57:35.567Z,98231.84
2023-04-18T23:00:04.334Z,98227.73
2023-04-18T23:02:31.514Z,98222.42
2023-04-18T23:04:59.226Z,98221.41
2023-04-18T23:07:26.184Z,98217.62
2023-04-18T23:09:53.077Z,98214.84
2023-04-18T23:12:20.427Z,98209.80
2023-04-18T23:14:47.542Z,98207.31
2023-04-18T23:17:15.037Z,98206.30
2023-04-18T23:19:41.956Z,98204.36
2023-04-18T23:22:08.795Z,98201.79
2023-04-18T23:24:35.664Z,98198.20
2023-04-18T23:27:02.590Z,98196.46
2023-04-18T23:29:29.516Z,98196.31
2023-04-18T23:31:56.463Z,98189.26
2023-04-18T23:34:23.406Z,98190.85
2023-04-18T23:36:50.259Z,98189.13
2023-04-18T23:39:17.995Z,98182.27
2023-04-18T23:41:45.088Z,98180.13
2023-04-18T23:44:12.032Z,98179.88
2023-04-18T23:46:38.929Z,98174.29
2023-04-18T23:49:05.822Z,98175.16
2023-04-18T23:51:32.727Z,98175.16
2023-04-18T23:53:59.658Z,98168.39
2023-04-18T23:56:26.932Z,98167.60
2023-04-18T23:58:53.865Z,98162.14
